Time,TemperatureF,DewpointF,PressureIn,WindDirection,WindDirectionDegrees,WindSpeedMPH,WindSpeedGustMPH,Humidity,HourlyPrecipIn,Conditions,Clouds,dailyrainin,SolarRadiationWatts/m^2,SoftwareType,DateUTC
2013-08-06 03:53:00,61.0,35.0,-100.00,WNW,292,7.0,13.0,37,-99.99,,,0.00,0.000000,,2013-08-06 10:53:00,
2013-08-06 04:53:00,59.0,35.0,-100.00,WNW,301,9.0,14.0,40,0.00,,,0.00,0.000000,,2013-08-06 11:53:00,
2013-08-06 05:52:00,58.0,36.0,-100.00,WNW,303,9.0,15.0,44,0.00,,,0.00,0.000000,,2013-08-06 12:52:00,
2013-08-06 08:22:00,63.0,40.0,-100.00,WNW,299,8.0,14.0,43,-99.99,,,0.00,77.000000,,2013-08-06 15:22:00,
2013-08-06 09:01:00,70.0,39.0,-100.00,NW,305,10.0,16.0,32,0.00,,,0.00,356.000000,,2013-08-06 16:01:00,
2013-08-06 09:11:00,70.0,39.0,-100.00,NW,305,10.0,16.0,32,0.00,,,0.00,356.000000,,2013-08-06 16:11:00,
2013-08-06 09:22:00,70.0,39.0,-100.00,NW,305,10.0,16.0,32,0.00,,,0.00,356.000000,,2013-08-06 16:22:00,
2013-08-06 09:52:00,72.0,32.0,-100.00,WNW,295,9.0,16.0,23,0.00,,,0.00,595.000000,,2013-08-06 16:52:00,
2013-08-06 10:02:00,72.0,32.0,-100.00,WNW,295,9.0,16.0,23,0.00,,,0.00,595.000000,,2013-08-06 17:02:00,
2013-08-06 10:11:00,72.0,32.0,-100.00,WNW,295,9.0,16.0,23,0.00,,,0.00,595.000000,,2013-08-06 17:11:00,
2013-08-06 10:21:00,72.0,32.0,-100.00,WNW,295,9.0,16.0,23,0.00,,,0.00,595.000000,,2013-08-06 17:21:00,
2013-08-06 10:52:00,77.0,34.0,-100.00,WNW,291,10.0,16.0,21,0.00,,,0.00,807.000000,,2013-08-06 17:52:00,
2013-08-06 11:01:00,77.0,34.0,-100.00,WNW,291,10.0,16.0,21,0.00,,,0.00,807.000000,,2013-08-06 18:01:00,
2013-08-06 11:11:00,77.0,34.0,-100.00,WNW,291,10.0,16.0,21,0.00,,,0.00,807.000000,,2013-08-06 18:11:00,
2013-08-06 11:21:00,77.0,34.0,-100.00,WNW,291,10.0,16.0,21,0.00,,,0.00,807.000000,,2013-08-06 18:21:00,
2013-08-06 11:52:00,81.0,32.0,-100.00,WNW,302,6.0,14.0,17,0.00,,,0.00,965.000000,,2013-08-06 18:52:00,
2013-08-06 12:01:00,81.0,32.0,-100.00,WNW,302,6.0,14.0,17,0.00,,,0.00,965.000000,,2013-08-06 19:01:00,
2013-08-06 12:11:00,81.0,32.0,-100.00,WNW,302,6.0,14.0,17,0.00,,,0.00,965.000000,,2013-08-06 19:11:00,
2013-08-06 12:21:00,81.0,32.0,-100.00,WNW,302,6.0,14.0,17,0.00,,,0.00,965.000000,,2013-08-06 19:21:00,
2013-08-06 12:52:00,87.0,26.0,-100.00,WNW,303,5.0,12.0,11,0.00,,,0.00,1065.000000,,2013-08-06 19:52:00,
2013-08-06 13:01:00,87.0,26.0,-100.00,WNW,303,5.0,12.0,11,0.00,,,0.00,1065.000000,,2013-08-06 20:01:00,
2013-08-06 13:11:00,87.0,26.0,-100.00,WNW,303,5.0,12.0,11,0.00,,,0.00,1065.000000,,2013-08-06 20:11:00,
2013-08-06 13:22:00,87.0,26.0,-100.00,WNW,303,5.0,12.0,11,0.00,,,0.00,1065.000000,,2013-08-06 20:22:00,
2013-08-06 13:52:00,89.0,23.0,-100.00,WNW,288,2.0,12.0,9,0.00,,,0.00,1104.000000,,2013-08-06 20:52:00,
2013-08-06 14:01:00,89.0,23.0,-100.00,WNW,288,2.0,12.0,9,0.00,,,0.00,1104.000000,,2013-08-06 21:01:00,
2013-08-06 14:11:00,89.0,23.0,-100.00,WNW,288,2.0,12.0,9,0.00,,,0.00,1104.000000,,2013-08-06 21:11:00,
2013-08-06 14:22:00,89.0,23.0,-100.00,WNW,288,2.0,12.0,9,0.00,,,0.00,1104.000000,,2013-08-06 21:22:00,
2013-08-06 14:52:00,90.0,21.0,-100.00,SE,127,9.0,22.0,8,0.00,,,0.00,1080.000000,,2013-08-06 21:52:00,
2013-08-06 15:01:00,90.0,21.0,-100.00,SE,127,9.0,22.0,8,0.00,,,0.00,1080.000000,,2013-08-06 22:01:00,
2013-08-06 15:11:00,90.0,21.0,-100.00,SE,127,9.0,22.0,8,0.00,,,0.00,1080.000000,,2013-08-06 22:11:00,
2013-08-06 15:21:00,90.0,21.0,-100.00,SE,127,9.0,22.0,8,0.00,,,0.00,1080.000000,,2013-08-06 22:21:00,
2013-08-06 15:53:00,89.0,20.0,-100.00,ESE,121,15.0,24.0,8,0.00,,,0.00,1002.000000,,2013-08-06 22:53:00,
2013-08-06 16:01:00,89.0,20.0,-100.00,ESE,121,15.0,24.0,8,0.00,,,0.00,1002.000000,,2013-08-06 23:01:00,
2013-08-06 16:11:00,89.0,20.0,-100.00,ESE,121,15.0,24.0,8,0.00,,,0.00,1002.000000,,2013-08-06 23:11:00,
2013-08-06 16:22:00,89.0,20.0,-100.00,ESE,121,15.0,24.0,8,0.00,,,0.00,1002.000000,,2013-08-06 23:22:00,
2013-08-06 16:52:00,90.0,24.0,-100.00,WNW,300,9.0,21.0,9,0.00,,,0.00,849.000000,,2013-08-06 23:52:00,
2013-08-06 17:01:00,90.0,24.0,-100.00,WNW,300,9.0,21.0,9,0.00,,,0.00,849.000000,,2013-08-07 00:01:00,
2013-08-06 17:11:00,90.0,24.0,-100.00,WNW,300,9.0,21.0,9,0.00,,,0.00,849.000000,,2013-08-07 00:11:00,
2013-08-06 17:21:00,90.0,24.0,-100.00,WNW,300,9.0,21.0,9,0.00,,,0.00,849.000000,,2013-08-07 00:21:00,
2013-08-06 17:52:00,84.0,24.0,-100.00,WNW,300,12.0,22.0,11,0.00,,,0.00,636.000000,,2013-08-07 00:52:00,
2013-08-06 18:01:00,84.0,24.0,-100.00,WNW,300,12.0,22.0,11,0.00,,,0.00,636.000000,,2013-08-07 01:01:00,
2013-08-06 18:11:00,84.0,24.0,-100.00,WNW,300,12.0,22.0,11,0.00,,,0.00,636.000000,,2013-08-07 01:11:00,
2013-08-06 18:21:00,84.0,24.0,-100.00,WNW,300,12.0,22.0,11,0.00,,,0.00,636.000000,,2013-08-07 01:21:00,
2013-08-06 18:52:00,77.0,22.0,-100.00,WNW,302,14.0,24.0,13,0.00,,,0.00,240.000000,,2013-08-07 01:52:00,
2013-08-06 19:02:00,77.0,22.0,-100.00,WNW,302,14.0,24.0,13,0.00,,,0.00,240.000000,,2013-08-07 02:02:00,
2013-08-06 19:11:00,77.0,22.0,-100.00,WNW,302,14.0,24.0,13,0.00,,,0.00,240.000000,,2013-08-07 02:11:00,
2013-08-06 19:22:00,77.0,22.0,-100.00,WNW,302,14.0,24.0,13,0.00,,,0.00,240.000000,,2013-08-07 02:22:00,
2013-08-06 19:53:00,77.0,22.0,-100.00,NW,306,8.0,23.0,13,0.00,,,0.00,158.000000,,2013-08-07 02:53:00,
2013-08-06 20:01:00,77.0,22.0,-100.00,NW,306,8.0,23.0,13,0.00,,,0.00,158.000000,,2013-08-07 03:01:00,
2013-08-06 20:11:00,77.0,22.0,-100.00,NW,306,8.0,23.0,13,0.00,,,0.00,158.000000,,2013-08-07 03:11:00,
2013-08-06 20:22:00,77.0,22.0,-100.00,NW,306,8.0,23.0,13,0.00,,,0.00,158.000000,,2013-08-07 03:22:00,
2013-08-06 20:52:00,71.0,23.0,-100.00,NW,313,9.0,18.0,16,0.00,,,0.00,7.000000,,2013-08-07 03:52:00,
2013-08-06 21:01:00,71.0,23.0,-100.00,NW,313,9.0,18.0,16,0.00,,,0.00,7.000000,,2013-08-07 04:01:00,
2013-08-06 21:11:00,71.0,23.0,-100.00,NW,313,9.0,18.0,16,0.00,,,0.00,7.000000,,2013-08-07 04:11:00,
2013-08-06 21:21:00,71.0,23.0,-100.00,NW,313,9.0,18.0,16,0.00,,,0.00,7.000000,,2013-08-07 04:21:00,
2013-08-06 21:52:00,70.0,28.0,-100.00,WNW,298,10.0,16.0,21,0.00,,,0.00,0.000000,,2013-08-07 04:52:00,
2013-08-06 22:02:00,70.0,28.0,-100.00,WNW,298,10.0,16.0,21,0.00,,,0.00,0.000000,,2013-08-07 05:02:00,
2013-08-06 22:11:00,70.0,28.0,-100.00,WNW,298,10.0,16.0,21,0.00,,,0.00,0.000000,,2013-08-07 05:11:00,
2013-08-06 22:22:00,70.0,28.0,-100.00,WNW,298,10.0,16.0,21,0.00,,,0.00,0.000000,,2013-08-07 05:22:00,
2013-08-06 22:52:00,65.0,29.0,-100.00,WNW,303,7.0,20.0,26,0.00,,,0.00,0.000000,,2013-08-07 05:52:00,
2013-08-06 23:02:00,65.0,29.0,-100.00,WNW,303,7.0,20.0,26,0.00,,,0.00,0.000000,,2013-08-07 06:02:00,
2013-08-06 23:11:00,65.0,29.0,-100.00,WNW,303,7.0,20.0,26,0.00,,,0.00,0.000000,,2013-08-07 06:11:00,
2013-08-06 23:22:00,65.0,29.0,-100.00,WNW,303,7.0,20.0,26,0.00,,,0.00,0.000000,,2013-08-07 06:22:00,
2013-08-06 23:52:00,64.0,34.0,-100.00,WNW,293,6.0,14.0,32,0.00,,,0.00,0.000000,,2013-08-07 06:52:00,